sensor_id;sensor_type;location;lat;lon;timestamp;pressure;altitude;pressure_sealevel;temperature;humidity
68197;BME280;55019;49.382;11.358;2024-01-16T00:02:00;95706.56;;;-2.52;100.00
68197;BME280;55019;49.382;11.358;2024-01-16T00:04:25;95704.03;;;-2.52;100.00
68197;BME280;55019;49.382;11.358;2024-01-16T00:06:52;95699.81;;;-2.64;100.00
68197;BME280;55019;49.382;11.358;2024-01-16T00:09:18;95714.66;;;-2.59;100.00
68197;BME280;55019;49.382;11.358;2024-01-16T00:11:43;95713.25;;;-2.63;100.00
68197;BME280;55019;49.382;11.358;2024-01-16T00:14:10;95721.25;;;-2.57;100.00
68197;BME280;55019;49.382;11.358;2024-01-16T00:16:42;95708.00;;;-2.60;100.00
68197;BME280;55019;49.382;11.358;2024-01-16T00:19:10;95723.50;;;-2.65;100.00
68197;BME280;55019;49.382;11.358;2024-01-16T00:21:40;95714.78;;;-2.61;100.00
68197;BME280;55019;49.382;11.358;2024-01-16T00:24:05;95725.47;;;-2.57;100.00
68197;BME280;55019;49.382;11.358;2024-01-16T00:26:32;95722.94;;;-2.57;100.00
68197;BME280;55019;49.382;11.358;2024-01-16T00:28:58;95722.25;;;-2.59;100.00
68197;BME280;55019;49.382;11.358;2024-01-16T00:31:24;95717.31;;;-2.61;100.00
68197;BME280;55019;49.382;11.358;2024-01-16T00:33:49;95723.69;;;-2.55;100.00
68197;BME280;55019;49.382;11.358;2024-01-16T00:36:15;95717.31;;;-2.61;100.00
68197;BME280;55019;49.382;11.358;2024-01-16T00:38:41;95715.69;;;-2.62;100.00
68197;BME280;55019;49.382;11.358;2024-01-16T00:41:06;95724.41;;;-2.66;100.00
68197;BME280;55019;49.382;11.358;2024-01-16T00:43:32;95726.72;;;-2.63;100.00
68197;BME280;55019;49.382;11.358;2024-01-16T00:45:58;95723.50;;;-2.65;100.00
68197;BME280;55019;49.382;11.358;2024-01-16T00:48:24;95726.03;;;-2.65;100.00
68197;BME280;55019;49.382;11.358;2024-01-16T00:50:51;95731.88;;;-2.64;100.00
68197;BME280;55019;49.382;11.358;2024-01-16T00:53:17;95733.81;;;-2.68;100.00
68197;BME280;55019;49.382;11.358;2024-01-16T00:55:42;95737.53;;;-2.61;100.00
68197;BME280;55019;49.382;11.358;2024-01-16T00:58:08;95735.91;;;-2.62;100.00
68197;BME280;55019;49.382;11.358;2024-01-16T01:00:34;95735.50;;;-2.56;100.00
68197;BME280;55019;49.382;11.358;2024-01-16T01:03:01;95737.53;;;-2.48;100.00
68197;BME280;55019;49.382;11.358;2024-01-16T01:05:26;95740.78;;;-2.59;100.00
68197;BME280;55019;49.382;11.358;2024-01-16T01:07:57;95749.06;;;-2.57;100.00
68197;BME280;55019;49.382;11.358;2024-01-16T01:10:23;95748.66;;;-2.63;100.00
68197;BME280;55019;49.382;11.358;2024-01-16T01:12:49;95760.50;;;-2.64;100.00
68197;BME280;55019;49.382;11.358;2024-01-16T01:15:15;95760.59;;;-2.65;100.00
68197;BME280;55019;49.382;11.358;2024-01-16T01:17:41;95758.88;;;-2.65;100.00
68197;BME280;55019;49.382;11.358;2024-01-16T01:20:10;95757.38;;;-2.67;100.00
68197;BME280;55019;49.382;11.358;2024-01-16T01:22:38;95748.06;;;-2.67;100.00
68197;BME280;55019;49.382;11.358;2024-01-16T01:25:04;95765.97;;;-2.70;100.00
68197;BME280;55019;49.382;11.358;2024-01-16T01:27:30;95766.69;;;-2.68;100.00
68197;BME280;55019;49.382;11.358;2024-01-16T01:29:55;95769.41;;;-2.71;100.00
68197;BME280;55019;49.382;11.358;2024-01-16T01:32:21;95780.03;;;-2.66;100.00
68197;BME280;55019;49.382;11.358;2024-01-16T01:34:50;95773.88;;;-2.74;100.00
68197;BME280;55019;49.382;11.358;2024-01-16T01:37:15;95780.44;;;-2.72;100.00
68197;BME280;55019;49.382;11.358;2024-01-16T01:39:41;95775.38;;;-2.72;100.00
68197;BME280;55019;49.382;11.358;2024-01-16T01:42:07;95773.16;;;-2.76;100.00
68197;BME280;55019;49.382;11.358;2024-01-16T01:44:32;95777.91;;;-2.72;100.00
68197;BME280;55019;49.382;11.358;2024-01-16T01:46:58;95771.34;;;-2.74;100.00
68197;BME280;55019;49.382;11.358;2024-01-16T01:49:25;95789.84;;;-2.74;100.00
68197;BME280;55019;49.382;11.358;2024-01-16T01:51:52;95785.72;;;-2.75;100.00
68197;BME280;55019;49.382;11.358;2024-01-16T01:54:19;95782.75;;;-2.69;100.00
68197;BME280;55019;49.382;11.358;2024-01-16T01:56:47;95784.81;;;-2.74;100.00
68197;BME280;55019;49.382;11.358;2024-01-16T01:59:18;95789.34;;;-2.79;100.00
68197;BME280;55019;49.382;11.358;2024-01-16T02:01:45;95794.91;;;-2.74;100.00
68197;BME280;55019;49.382;11.358;2024-01-16T02:04:16;95789.84;;;-2.74;100.00
68197;BME280;55019;49.382;11.358;2024-01-16T02:06:42;95796.94;;;-2.79;100.00
68197;BME280;55019;49.382;11.358;2024-01-16T02:09:10;95789.53;;;-2.82;100.00
68197;BME280;55019;49.382;11.358;2024-01-16T02:11:39;95797.31;;;-2.85;100.00
68197;BME280;55019;49.382;11.358;2024-01-16T02:14:05;95798.44;;;-2.76;100.00
68197;BME280;55019;49.382;11.358;2024-01-16T02:16:36;95810.16;;;-2.75;100.00
68197;BME280;55019;49.382;11.358;2024-01-16T02:19:03;95813.00;;;-2.80;100.00
68197;BME280;55019;49.382;11.358;2024-01-16T02:21:38;95808.47;;;-2.75;100.00
68197;BME280;55019;49.382;11.358;2024-01-16T02:24:08;95814.22;;;-2.73;100.00
68197;BME280;55019;49.382;11.358;2024-01-16T02:26:35;95813.81;;;-2.79;100.00
68197;BME280;55019;49.382;11.358;2024-01-16T02:29:01;95810.56;;;-2.81;100.00
68197;BME280;55019;49.382;11.358;2024-01-16T02:31:28;95816.25;;;-2.78;100.00
68197;BME280;55019;49.382;11.358;2024-01-16T02:33:53;95817.88;;;-2.77;100.00
68197;BME280;55019;49.382;11.358;2024-01-16T02:36:19;95822.59;;;-2.72;100.00
68197;BME280;55019;49.382;11.358;2024-01-16T02:38:45;95812.59;;;-2.74;100.00
68197;BME280;55019;49.382;11.358;2024-01-16T02:41:13;95814.63;;;-2.79;100.00
68197;BME280;55019;49.382;11.358;2024-01-16T02:43:39;95825.63;;;-2.67;100.00
68197;BME280;55019;49.382;11.358;2024-01-16T02:46:05;95823.84;;;-2.78;100.00
68197;BME280;55019;49.382;11.358;2024-01-16T02:48:30;95821.50;;;-2.81;100.00
68197;BME280;55019;49.382;11.358;2024-01-16T02:50:56;95838.09;;;-2.77;100.00
68197;BME280;55019;49.382;11.358;2024-01-16T02:53:22;95831.78;;;-2.84;100.00
68197;BME280;55019;49.382;11.358;2024-01-16T02:55:47;95836.84;;;-2.84;100.00
68197;BME280;55019;49.382;11.358;2024-01-16T02:58:13;95835.03;;;-2.82;100.00
68197;BME280;55019;49.382;11.358;2024-01-16T03:00:39;95841.81;;;-2.82;100.00
68197;BME280;55019;49.382;11.358;2024-01-16T03:03:04;95846.97;;;-2.84;100.00
68197;BME280;55019;49.382;11.358;2024-01-16T03:05:30;95840.63;;;-2.77;100.00
68197;BME280;55019;49.382;11.358;2024-01-16T03:07:56;95846.66;;;-2.79;100.00
68197;BME280;55019;49.382;11.358;2024-01-16T03:10:21;95854.16;;;-2.78;100.00
68197;BME280;55019;49.382;11.358;2024-01-16T03:12:47;95862.97;;;-2.71;100.00
68197;BME280;55019;49.382;11.358;2024-01-16T03:15:13;95847.66;;;-2.82;100.00
68197;BME280;55019;49.382;11.358;2024-01-16T03:17:38;95851.03;;;-2.81;100.00
68197;BME280;55019;49.382;11.358;2024-01-16T03:20:04;95850.19;;;-2.82;100.00
68197;BME280;55019;49.382;11.358;2024-01-16T03:22:30;95852.56;;;-2.79;100.00
68197;BME280;55019;49.382;11.358;2024-01-16T03:24:56;95850.19;;;-2.82;100.00
68197;BME280;55019;49.382;11.358;2024-01-16T03:27:22;95852.84;;;-2.83;100.00
68197;BME280;55019;49.382;11.358;2024-01-16T03:29:48;95857.00;;;-2.70;100.00
68197;BME280;55019;49.382;11.358;2024-01-16T03:32:13;95857.19;;;-2.73;100.00
68197;BME280;55019;49.382;11.358;2024-01-16T03:34:39;95860.84;;;-2.77;100.00
68197;BME280;55019;49.382;11.358;2024-01-16T03:37:05;95852.63;;;-2.80;100.00
68197;BME280;55019;49.382;11.358;2024-01-16T03:39:31;95855.44;;;-2.85;100.00
68197;BME280;55019;49.382;11.358;2024-01-16T03:41:57;95848.06;;;-2.88;100.00
68197;BME280;55019;49.382;11.358;2024-01-16T03:44:22;95863.16;;;-2.86;100.00
68197;BME280;55019;49.382;11.358;2024-01-16T03:46:48;95865.38;;;-2.82;100.00
68197;BME280;55019;49.382;11.358;2024-01-16T03:49:14;95859.72;;;-2.85;100.00
68197;BME280;55019;49.382;11.358;2024-01-16T03:51:39;95868.00;;;-2.83;100.00
68197;BME280;55019;49.382;11.358;2024-01-16T03:54:08;95868.41;;;-2.89;100.00
68197;BME280;55019;49.382;11.358;2024-01-16T03:56:33;95863.16;;;-2.86;100.00
68197;BME280;55019;49.382;11.358;2024-01-16T03:58:59;95867.50;;;-2.88;100.00
68197;BME280;55019;49.382;11.358;2024-01-16T04:01:32;95863.66;;;-2.81;100.00
68197;BME280;55019;49.382;11.358;2024-01-16T04:03:58;95864.34;;;-2.91;100.00
68197;BME280;55019;49.382;11.358;2024-01-16T04:06:24;95857.28;;;-2.87;100.00
68197;BME280;55019;49.382;11.358;2024-01-16T04:08:49;95865.19;;;-2.91;100.00
68197;BME280;55019;49.382;11.358;2024-01-16T04:11:15;95851.44;;;-2.87;100.00
68197;BME280;55019;49.382;11.358;2024-01-16T04:13:41;95860.50;;;-2.85;100.00
68197;BME280;55019;49.382;11.358;2024-01-16T04:16:07;95856.88;;;-2.93;100.00
68197;BME280;55019;49.382;11.358;2024-01-16T04:18:36;95856.78;;;-2.91;100.00
68197;BME280;55019;49.382;11.358;2024-01-16T04:21:03;95860.41;;;-2.95;100.00
68197;BME280;55019;49.382;11.358;2024-01-16T04:23:29;95867.69;;;-2.91;100.00
68197;BME280;55019;49.382;11.358;2024-01-16T04:25:54;95862.34;;;-2.87;100.00
68197;BME280;55019;49.382;11.358;2024-01-16T04:28:20;95858.31;;;-2.89;100.00
68197;BME280;55019;49.382;11.358;2024-01-16T04:30:46;95866.59;;;-2.87;100.00
68197;BME280;55019;49.382;11.358;2024-01-16T04:33:11;95858.50;;;-2.92;100.00
68197;BME280;55019;49.382;11.358;2024-01-16T04:35:37;95867.59;;;-2.89;100.00
68197;BME280;55019;49.382;11.358;2024-01-16T04:38:03;95857.69;;;-2.92;100.00
68197;BME280;55019;49.382;11.358;2024-01-16T04:40:29;95853.84;;;-2.98;100.00
68197;BME280;55019;49.382;11.358;2024-01-16T04:42:55;95859.28;;;-2.91;100.00
68197;BME280;55019;49.382;11.358;2024-01-16T04:45:20;95869.41;;;-2.91;100.00
68197;BME280;55019;49.382;11.358;2024-01-16T04:47:46;95869.22;;;-2.88;100.00
68197;BME280;55019;49.382;11.358;2024-01-16T04:50:12;95875.47;;;-2.82;100.00
68197;BME280;55019;49.382;11.358;2024-01-16T04:52:37;95873.34;;;-2.88;100.00
68197;BME280;55019;49.382;11.358;2024-01-16T04:55:04;95881.44;;;-2.83;100.00
68197;BME280;55019;49.382;11.358;2024-01-16T04:57:29;95872.44;;;-2.87;100.00
68197;BME280;55019;49.382;11.358;2024-01-16T04:59:56;95878.91;;;-2.83;100.00
68197;BME280;55019;49.382;11.358;2024-01-16T05:02:22;95896.53;;;-2.81;100.00
68197;BME280;55019;49.382;11.358;2024-01-16T05:04:48;95886.81;;;-2.87;100.00
68197;BME280;55019;49.382;11.358;2024-01-16T05:07:15;95888.03;;;-2.80;100.00
68197;BME280;55019;49.382;11.358;2024-01-16T05:09:41;95885.78;;;-2.85;100.00
68197;BME280;55019;49.382;11.358;2024-01-16T05:12:06;95883.25;;;-2.85;100.00
68197;BME280;55019;49.382;11.358;2024-01-16T05:14:32;95892.09;;;-2.78;100.00
68197;BME280;55019;49.382;11.358;2024-01-16T05:16:58;95888.44;;;-2.74;100.00
68197;BME280;55019;49.382;11.358;2024-01-16T05:19:23;95885.41;;;-2.79;100.00
68197;BME280;55019;49.382;11.358;2024-01-16T05:21:49;95886.81;;;-2.87;100.00
68197;BME280;55019;49.382;11.358;2024-01-16T05:24:15;95887.81;;;-2.89;100.00
68197;BME280;55019;49.382;11.358;2024-01-16T05:26:40;95896.03;;;-2.74;100.00
68197;BME280;55019;49.382;11.358;2024-01-16T05:29:06;95894.63;;;-2.78;100.00
68197;BME280;55019;49.382;11.358;2024-01-16T05:31:32;95884.88;;;-2.84;100.00
68197;BME280;55019;49.382;11.358;2024-01-16T05:33:58;95887.03;;;-2.78;100.00
68197;BME280;55019;49.382;11.358;2024-01-16T05:36:23;95879.56;;;-2.67;100.00
68197;BME280;55019;49.382;11.358;2024-01-16T05:38:50;95888.25;;;-2.71;100.00
68197;BME280;55019;49.382;11.358;2024-01-16T05:41:16;95880.38;;;-2.79;100.00
68197;BME280;55019;49.382;11.358;2024-01-16T05:43:41;95878.91;;;-2.83;100.00
68197;BME280;55019;49.382;11.358;2024-01-16T05:46:07;95876.28;;;-2.93;100.00
68197;BME280;55019;49.382;11.358;2024-01-16T05:48:34;95873.03;;;-2.95;100.00
68197;BME280;55019;49.382;11.358;2024-01-16T05:51:00;95874.66;;;-2.94;100.00
68197;BME280;55019;49.382;11.358;2024-01-16T05:53:26;95879.31;;;-2.88;100.00
68197;BME280;55019;49.382;11.358;2024-01-16T05:55:52;95877.69;;;-3.02;100.00
68197;BME280;55019;49.382;11.358;2024-01-16T05:58:19;95882.94;;;-3.05;100.00
68197;BME280;55019;49.382;11.358;2024-01-16T06:00:45;95888.00;;;-2.92;100.00
68197;BME280;55019;49.382;11.358;2024-01-16T06:03:11;95895.91;;;-2.97;100.00
68197;BME280;55019;49.382;11.358;2024-01-16T06:05:36;95899.53;;;-3.01;100.00
68197;BME280;55019;49.382;11.358;2024-01-16T06:08:02;95893.66;;;-3.01;100.00
68197;BME280;55019;49.382;11.358;2024-01-16T06:10:28;95895.47;;;-3.03;100.00
68197;BME280;55019;49.382;11.358;2024-01-16T06:12:54;95901.44;;;-3.04;100.00
68197;BME280;55019;49.382;11.358;2024-01-16T06:15:19;95899.34;;;-2.98;100.00
68197;BME280;55019;49.382;11.358;2024-01-16T06:17:45;95903.56;;;-2.98;100.00
68197;BME280;55019;49.382;11.358;2024-01-16T06:20:11;95893.38;;;-2.97;100.00
68197;BME280;55019;49.382;11.358;2024-01-16T06:22:36;95897.81;;;-3.00;100.00
68197;BME280;55019;49.382;11.358;2024-01-16T06:25:02;95897.81;;;-3.00;100.00
68197;BME280;55019;49.382;11.358;2024-01-16T06:27:28;95897.50;;;-3.08;100.00
68197;BME280;55019;49.382;11.358;2024-01-16T06:29:54;95901.72;;;-3.09;100.00
68197;BME280;55019;49.382;11.358;2024-01-16T06:32:19;95900.94;;;-3.09;100.00
68197;BME280;55019;49.382;11.358;2024-01-16T06:34:45;95898.72;;;-3.01;100.00
68197;BME280;55019;49.382;11.358;2024-01-16T06:37:11;95906.81;;;-2.96;100.00
68197;BME280;55019;49.382;11.358;2024-01-16T06:39:36;95908.81;;;-3.01;100.00
68197;BME280;55019;49.382;11.358;2024-01-16T06:42:03;95918.94;;;-3.01;100.00
68197;BME280;55019;49.382;11.358;2024-01-16T06:44:30;95920.66;;;-2.89;100.00
68197;BME280;55019;49.382;11.358;2024-01-16T06:46:55;95925.25;;;-2.82;100.00
68197;BME280;55019;49.382;11.358;2024-01-16T06:49:21;95917.75;;;-2.96;100.00
68197;BME280;55019;49.382;11.358;2024-01-16T06:51:47;95921.78;;;-2.93;100.00
68197;BME280;55019;49.382;11.358;2024-01-16T06:54:12;95929.66;;;-2.86;100.00
68197;BME280;55019;49.382;11.358;2024-01-16T06:56:39;95925.63;;;-2.88;100.00
68197;BME280;55019;49.382;11.358;2024-01-16T06:59:04;95918.53;;;-2.95;100.00
68197;BME280;55019;49.382;11.358;2024-01-16T07:01:30;95928.75;;;-2.97;100.00
68197;BME280;55019;49.382;11.358;2024-01-16T07:03:56;95921.56;;;-3.03;100.00
68197;BME280;55019;49.382;11.358;2024-01-16T07:06:22;95925.00;;;-2.91;100.00
68197;BME280;55019;49.382;11.358;2024-01-16T07:08:47;95932.00;;;-2.83;100.00
68197;BME280;55019;49.382;11.358;2024-01-16T07:11:13;95917.56;;;-2.81;100.00
68197;BME280;55019;49.382;11.358;2024-01-16T07:13:40;95918.34;;;-2.92;100.00
68197;BME280;55019;49.382;11.358;2024-01-16T07:16:09;95931.00;;;-2.80;100.00
68197;BME280;55019;49.382;11.358;2024-01-16T07:18:36;95930.69;;;-2.88;100.00
68197;BME280;55019;49.382;11.358;2024-01-16T07:21:02;95926.19;;;-2.71;100.00
68197;BME280;55019;49.382;11.358;2024-01-16T07:23:29;95932.81;;;-2.82;100.00
68197;BME280;55019;49.382;11.358;2024-01-16T07:25:55;95929.50;;;-2.70;100.00
68197;BME280;55019;49.382;11.358;2024-01-16T07:28:21;95923.63;;;-2.83;100.00
68197;BME280;55019;49.382;11.358;2024-01-16T07:30:48;95929.31;;;-2.80;100.00
68197;BME280;55019;49.382;11.358;2024-01-16T07:33:13;95919.19;;;-2.80;100.00
68197;BME280;55019;49.382;11.358;2024-01-16T07:35:39;95930.91;;;-2.66;100.00
68197;BME280;55019;49.382;11.358;2024-01-16T07:38:09;95935.19;;;-2.54;100.00
68197;BME280;55019;49.382;11.358;2024-01-16T07:40:35;95932.56;;;-2.53;100.00
68197;BME280;55019;49.382;11.358;2024-01-16T07:43:00;95936.59;;;-2.38;100.00
68197;BME280;55019;49.382;11.358;2024-01-16T07:45:26;95935.19;;;-2.29;100.00
68197;BME280;55019;49.382;11.358;2024-01-16T07:47:51;95931.13;;;-2.32;100.00
68197;BME280;55019;49.382;11.358;2024-01-16T07:50:17;95947.22;;;-2.20;100.00
68197;BME280;55019;49.382;11.358;2024-01-16T07:52:43;95944.09;;;-2.49;100.00
68197;BME280;55019;49.382;11.358;2024-01-16T07:55:09;95948.84;;;-2.32;100.00
68197;BME280;55019;49.382;11.358;2024-01-16T07:57:34;95938.56;;;-2.29;100.00
68197;BME280;55019;49.382;11.358;2024-01-16T08:00:00;95946.81;;;-2.02;100.00
68197;BME280;55019;49.382;11.358;2024-01-16T08:02:32;95952.38;;;-1.84;100.00
68197;BME280;55019;49.382;11.358;2024-01-16T08:04:59;95938.19;;;-1.87;100.00
68197;BME280;55019;49.382;11.358;2024-01-16T08:07:26;95936.16;;;-1.82;100.00
68197;BME280;55019;49.382;11.358;2024-01-16T08:09:51;95948.09;;;-1.71;100.00
68197;BME280;55019;49.382;11.358;2024-01-16T08:12:17;95940.16;;;-2.15;100.00
68197;BME280;55019;49.382;11.358;2024-01-16T08:14:43;95942.28;;;-2.34;100.00
68197;BME280;55019;49.382;11.358;2024-01-16T08:17:09;95941.75;;;-2.52;100.00
68197;BME280;55019;49.382;11.358;2024-01-16T08:19:35;95955.59;;;-2.57;100.00
68197;BME280;55019;49.382;11.358;2024-01-16T08:22:01;95946.22;;;-2.43;100.00
68197;BME280;55019;49.382;11.358;2024-01-16T08:24:31;95949.56;;;-2.42;100.00
68197;BME280;55019;49.382;11.358;2024-01-16T08:26:57;95943.28;;;-2.62;100.00
68197;BME280;55019;49.382;11.358;2024-01-16T08:29:24;95942.44;;;-2.62;100.00
68197;BME280;55019;49.382;11.358;2024-01-16T08:31:50;95953.75;;;-2.80;100.00
68197;BME280;55019;49.382;11.358;2024-01-16T08:34:17;95957.81;;;-2.78;100.00
68197;BME280;55019;49.382;11.358;2024-01-16T08:36:44;95954.91;;;-2.72;100.00
68197;BME280;55019;49.382;11.358;2024-01-16T08:39:10;95962.88;;;-2.65;100.00
68197;BME280;55019;49.382;11.358;2024-01-16T08:41:36;95970.53;;;-2.79;100.00
68197;BME280;55019;49.382;11.358;2024-01-16T08:44:02;95964.09;;;-2.71;100.00
68197;BME280;55019;49.382;11.358;2024-01-16T08:46:27;95963.50;;;-2.62;100.00
68197;BME280;55019;49.382;11.358;2024-01-16T08:48:53;95963.72;;;-2.40;100.00
68197;BME280;55019;49.382;11.358;2024-01-16T08:51:19;95969.22;;;-2.21;100.00
68197;BME280;55019;49.382;11.358;2024-01-16T08:53:45;95971.00;;;-1.98;100.00
68197;BME280;55019;49.382;11.358;2024-01-16T08:56:11;95975.91;;;-2.20;100.00
68197;BME280;55019;49.382;11.358;2024-01-16T08:58:38;95975.47;;;-2.14;100.00
68197;BME280;55019;49.382;11.358;2024-01-16T09:01:04;95971.25;;;-2.26;100.00
68197;BME280;55019;49.382;11.358;2024-01-16T09:03:32;95971.94;;;-2.36;100.00
68197;BME280;55019;49.382;11.358;2024-01-16T09:05:57;95961.28;;;-2.54;100.00
68197;BME280;55019;49.382;11.358;2024-01-16T09:08:24;95956.34;;;-2.30;100.00
68197;BME280;55019;49.382;11.358;2024-01-16T09:10:52;95961.09;;;-2.13;100.00
68197;BME280;55019;49.382;11.358;2024-01-16T09:13:18;95955.53;;;-2.18;100.00
68197;BME280;55019;49.382;11.358;2024-01-16T09:15:46;95967.56;;;-2.47;100.00
68197;BME280;55019;49.382;11.358;2024-01-16T09:18:12;95966.53;;;-2.57;100.00
68197;BME280;55019;49.382;11.358;2024-01-16T09:20:38;95967.16;;;-2.66;100.00
68197;BME280;55019;49.382;11.358;2024-01-16T09:23:04;95957.84;;;-2.53;100.00
68197;BME280;55019;49.382;11.358;2024-01-16T09:25:30;95963.41;;;-2.48;100.00
68197;BME280;55019;49.382;11.358;2024-01-16T09:27:55;95967.56;;;-2.47;100.00
68197;BME280;55019;49.382;11.358;2024-01-16T09:30:21;95978.09;;;-2.53;100.00
68197;BME280;55019;49.382;11.358;2024-01-16T09:32:48;95972.72;;;-2.61;100.00
68197;BME280;55019;49.382;11.358;2024-01-16T09:35:14;95976.84;;;-2.60;100.00
68197;BME280;55019;49.382;11.358;2024-01-16T09:37:40;95973.50;;;-2.73;100.00
68197;BME280;55019;49.382;11.358;2024-01-16T09:40:06;95978.56;;;-2.73;100.00
68197;BME280;55019;49.382;11.358;2024-01-16T09:42:32;95984.72;;;-2.77;100.00
68197;BME280;55019;49.382;11.358;2024-01-16T09:45:00;95978.88;;;-2.65;100.00
68197;BME280;55019;49.382;11.358;2024-01-16T09:47:26;95976.06;;;-2.48;100.00
68197;BME280;55019;49.382;11.358;2024-01-16T09:49:52;95973.53;;;-2.48;100.00
68197;BME280;55019;49.382;11.358;2024-01-16T09:52:20;95973.41;;;-2.59;100.00
68197;BME280;55019;49.382;11.358;2024-01-16T09:54:45;95975.75;;;-2.56;100.00
68197;BME280;55019;49.382;11.358;2024-01-16T09:57:12;95977.59;;;-2.45;100.00
68197;BME280;55019;49.382;11.358;2024-01-16T09:59:39;95978.38;;;-2.45;100.00
68197;BME280;55019;49.382;11.358;2024-01-16T10:02:09;95982.13;;;-2.38;100.00
68197;BME280;55019;49.382;11.358;2024-01-16T10:04:35;95977.28;;;-2.41;100.00
68197;BME280;55019;49.382;11.358;2024-01-16T10:07:02;95972.44;;;-2.31;100.00
68197;BME280;55019;49.382;11.358;2024-01-16T10:09:28;95977.91;;;-2.37;100.00
68197;BME280;55019;49.382;11.358;2024-01-16T10:11:54;95977.88;;;-2.50;100.00
68197;BME280;55019;49.382;11.358;2024-01-16T10:14:20;95979.50;;;-2.49;100.00
68197;BME280;55019;49.382;11.358;2024-01-16T10:17:03;95972.66;;;-2.22;100.00
68197;BME280;55019;49.382;11.358;2024-01-16T10:19:47;95981.63;;;-2.05;100.00
68197;BME280;55019;49.382;11.358;2024-01-16T10:22:19;95977.97;;;-1.76;100.00
68197;BME280;55019;49.382;11.358;2024-01-16T10:24:48;95979.91;;;-1.80;100.00
68197;BME280;55019;49.382;11.358;2024-01-16T10:27:16;95976.97;;;-1.74;100.00
68197;BME280;55019;49.382;11.358;2024-01-16T10:29:55;95982.97;;;-1.87;100.00
68197;BME280;55019;49.382;11.358;2024-01-16T10:32:33;95977.91;;;-1.75;100.00
68197;BME280;55019;49.382;11.358;2024-01-16T10:37:27;95985.41;;;-2.11;100.00
68197;BME280;55019;49.382;11.358;2024-01-16T10:39:53;95978.41;;;-1.82;100.00
68197;BME280;55019;49.382;11.358;2024-01-16T10:42:19;95979.53;;;-1.99;100.00
68197;BME280;55019;49.382;11.358;2024-01-16T10:44:54;95975.47;;;-1.89;100.00
68197;BME280;55019;49.382;11.358;2024-01-16T10:47:23;95982.25;;;-2.02;100.00
68197;BME280;55019;49.382;11.358;2024-01-16T10:49:49;95976.28;;;-2.01;100.00
68197;BME280;55019;49.382;11.358;2024-01-16T10:52:14;95967.34;;;-1.81;100.00
68197;BME280;55019;49.382;11.358;2024-01-16T10:54:42;95964.75;;;-1.44;100.00
68197;BME280;55019;49.382;11.358;2024-01-16T10:57:14;95962.75;;;-1.28;100.00
68197;BME280;55019;49.382;11.358;2024-01-16T11:00:04;95957.34;;;-1.47;100.00
68197;BME280;55019;49.382;11.358;2024-01-16T11:02:40;95960.78;;;-1.12;100.00
68197;BME280;55019;49.382;11.358;2024-01-16T11:05:09;95956.28;;;-0.85;100.00
68197;BME280;55019;49.382;11.358;2024-01-16T11:07:37;95957.66;;;-0.58;100.00
68197;BME280;55019;49.382;11.358;2024-01-16T11:10:03;95958.34;;;-0.56;100.00
68197;BME280;55019;49.382;11.358;2024-01-16T11:12:30;95959.38;;;-0.58;100.00
68197;BME280;55019;49.382;11.358;2024-01-16T11:14:59;95959.06;;;-0.77;100.00
68197;BME280;55019;49.382;11.358;2024-01-16T11:17:29;95956.50;;;-0.54;100.00
68197;BME280;55019;49.382;11.358;2024-01-16T11:19:57;95959.25;;;-0.91;100.00
68197;BME280;55019;49.382;11.358;2024-01-16T11:22:23;95951.13;;;-0.84;100.00
68197;BME280;55019;49.382;11.358;2024-01-16T11:25:11;95950.44;;;-0.40;100.00
68197;BME280;55019;49.382;11.358;2024-01-16T11:27:38;95950.41;;;-0.51;100.00
68197;BME280;55019;49.382;11.358;2024-01-16T11:30:05;95956.56;;;-0.43;100.00
68197;BME280;55019;49.382;11.358;2024-01-16T11:32:42;95959.97;;;-0.89;100.00
68197;BME280;55019;49.382;11.358;2024-01-16T11:35:09;95958.22;;;-0.65;100.00
68197;BME280;55019;49.382;11.358;2024-01-16T11:37:35;95951.16;;;-0.96;100.00
68197;BME280;55019;49.382;11.358;2024-01-16T11:40:20;95955.09;;;-0.69;100.00
68197;BME280;55019;49.382;11.358;2024-01-16T11:42:53;95947.16;;;-1.22;100.00
68197;BME280;55019;49.382;11.358;2024-01-16T11:48:08;95941.38;;;-1.01;100.00
68197;BME280;55019;49.382;11.358;2024-01-16T11:50:35;95945.91;;;-0.82;100.00
68197;BME280;55019;49.382;11.358;2024-01-16T11:53:01;95937.50;;;-0.48;100.00
68197;BME280;55019;49.382;11.358;2024-01-16T11:55:28;95933.03;;;-0.34;100.00
68197;BME280;55019;49.382;11.358;2024-01-16T12:00:55;95918.41;;;0.13;100.00
68197;BME280;55019;49.382;11.358;2024-01-16T12:03:23;95908.00;;;0.16;100.00
68197;BME280;55019;49.382;11.358;2024-01-16T12:05:58;95916.56;;;0.26;100.00
68197;BME280;55019;49.382;11.358;2024-01-16T12:08:25;95916.78;;;0.34;100.00
68197;BME280;55019;49.382;11.358;2024-01-16T12:10:51;95928.91;;;0.31;100.00
68197;BME280;55019;49.382;11.358;2024-01-16T12:13:17;95931.19;;;-0.32;100.00
68197;BME280;55019;49.382;11.358;2024-01-16T12:15:43;95922.09;;;-0.12;100.00
68197;BME280;55019;49.382;11.358;2024-01-16T12:18:09;95906.56;;;0.56;100.00
68197;BME280;55019;49.382;11.358;2024-01-16T12:20:36;95914.75;;;0.71;100.00
68197;BME280;55019;49.382;11.358;2024-01-16T12:23:05;95912.53;;;0.77;100.00
68197;BME280;55019;49.382;11.358;2024-01-16T12:25:35;95900.19;;;1.25;100.00
68197;BME280;55019;49.382;11.358;2024-01-16T12:28:05;95891.72;;;1.35;100.00
68197;BME280;55019;49.382;11.358;2024-01-16T12:30:36;95884.25;;;1.43;100.00
68197;BME280;55019;49.382;11.358;2024-01-16T12:33:05;95883.25;;;1.55;100.00
68197;BME280;55019;49.382;11.358;2024-01-16T12:35:35;95870.41;;;1.86;100.00
68197;BME280;55019;49.382;11.358;2024-01-16T12:38:02;95866.88;;;1.48;100.00
68197;BME280;55019;49.382;11.358;2024-01-16T12:40:29;95872.47;;;1.42;100.00
68197;BME280;55019;49.382;11.358;2024-01-16T12:42:55;95858.56;;;2.06;100.00
68197;BME280;55019;49.382;11.358;2024-01-16T12:45:22;95859.53;;;2.24;99.69
68197;BME280;55019;49.382;11.358;2024-01-16T12:47:54;95853.91;;;2.97;90.07